Terminal Aerodrome Forecast
Issued by NWS North Platte, NE

Home | Current Version | Previous Version | Text Only | Print | Product List | Glossary Off
Versions: 1 2 3 4 5 6 7 8 9 10 11 12 13 14 15 16 17

000
FTUS43 KLBF 201028 AAA
TAFVTN
TAF AMD
KVTN 201028Z 2010/2106 36007KT 6SM -RA BR SCT007 OVC016
     FM201200 34011KT 5SM -SNRA OVC007
     FM201400 34013G19KT 3SM -RA OVC008
     FM201800 35013G19KT P6SM -RA OVC008
     FM202200 34012KT P6SM VCSH SCT010 BKN020
     FM210400 33005KT P6SM SCT030=

USA.gov is the U.S. government's official web portal to all federal, state and local government web resources and services.